sensor_id;sensor_type;location;lat;lon;timestamp;temperature;humidity
69324;DHT22;56470;47.350;8.718;2023-06-04T00:01:57;21.10;52.32
69324;DHT22;56470;47.350;8.718;2023-06-04T00:04:24;21.12;52.38
69324;DHT22;56470;47.350;8.718;2023-06-04T00:06:50;21.15;52.46
69324;DHT22;56470;47.350;8.718;2023-06-04T00:09:15;21.13;52.40
69324;DHT22;56470;47.350;8.718;2023-06-04T00:11:40;21.13;52.40
69324;DHT22;56470;47.350;8.718;2023-06-04T00:14:06;21.18;52.34
69324;DHT22;56470;47.350;8.718;2023-06-04T00:16:31;21.16;52.29
69324;DHT22;56470;47.350;8.718;2023-06-04T00:18:57;21.08;52.42
69324;DHT22;56470;47.350;8.718;2023-06-04T00:21:22;21.02;52.50
69324;DHT22;56470;47.350;8.718;2023-06-04T00:23:47;20.95;52.62
69324;DHT22;56470;47.350;8.718;2023-06-04T00:26:12;20.90;52.72
69324;DHT22;56470;47.350;8.718;2023-06-04T00:28:38;20.78;52.77
69324;DHT22;56470;47.350;8.718;2023-06-04T00:31:05;20.74;53.01
69324;DHT22;56470;47.350;8.718;2023-06-04T00:33:31;20.75;53.03
69324;DHT22;56470;47.350;8.718;2023-06-04T00:35:56;20.77;53.01
69324;DHT22;56470;47.350;8.718;2023-06-04T00:38:21;20.77;53.14
69324;DHT22;56470;47.350;8.718;2023-06-04T00:40:47;20.74;53.06
69324;DHT22;56470;47.350;8.718;2023-06-04T00:43:12;20.71;53.19
69324;DHT22;56470;47.350;8.718;2023-06-04T00:45:39;20.65;53.10
69324;DHT22;56470;47.350;8.718;2023-06-04T00:48:04;20.57;53.39
69324;DHT22;56470;47.350;8.718;2023-06-04T00:50:31;20.57;53.49
69324;DHT22;56470;47.350;8.718;2023-06-04T00:52:58;20.56;53.52
69324;DHT22;56470;47.350;8.718;2023-06-04T00:55:24;20.51;53.48
69324;DHT22;56470;47.350;8.718;2023-06-04T00:57:50;20.41;53.62
69324;DHT22;56470;47.350;8.718;2023-06-04T01:00:15;20.39;53.74
69324;DHT22;56470;47.350;8.718;2023-06-04T01:02:41;20.39;53.85
69324;DHT22;56470;47.350;8.718;2023-06-04T01:05:24;20.37;55.09
69324;DHT22;56470;47.350;8.718;2023-06-04T01:07:54;20.36;53.79
69324;DHT22;56470;47.350;8.718;2023-06-04T01:10:20;20.33;53.91
69324;DHT22;56470;47.350;8.718;2023-06-04T01:12:47;20.32;54.01
69324;DHT22;56470;47.350;8.718;2023-06-04T01:15:12;20.30;54.02
69324;DHT22;56470;47.350;8.718;2023-06-04T01:17:43;20.25;54.36
69324;DHT22;56470;47.350;8.718;2023-06-04T01:27:53;20.23;54.53
69324;DHT22;56470;47.350;8.718;2023-06-04T01:30:26;20.18;54.54
69324;DHT22;56470;47.350;8.718;2023-06-04T01:32:56;20.19;54.66
69324;DHT22;56470;47.350;8.718;2023-06-04T01:35:22;20.16;54.63
69324;DHT22;56470;47.350;8.718;2023-06-04T01:37:48;20.13;54.68
69324;DHT22;56470;47.350;8.718;2023-06-04T01:40:14;20.11;54.63
69324;DHT22;56470;47.350;8.718;2023-06-04T01:42:41;20.05;54.81
69324;DHT22;56470;47.350;8.718;2023-06-04T01:45:06;19.98;54.74
69324;DHT22;56470;47.350;8.718;2023-06-04T01:47:32;19.95;54.75
69324;DHT22;56470;47.350;8.718;2023-06-04T01:49:57;19.85;54.95
69324;DHT22;56470;47.350;8.718;2023-06-04T01:52:23;19.84;55.17
69324;DHT22;56470;47.350;8.718;2023-06-04T01:54:48;19.82;55.21
69324;DHT22;56470;47.350;8.718;2023-06-04T01:57:17;19.78;55.33
69324;DHT22;56470;47.350;8.718;2023-06-04T01:59:43;19.78;55.35
69324;DHT22;56470;47.350;8.718;2023-06-04T02:02:10;19.74;55.41
69324;DHT22;56470;47.350;8.718;2023-06-04T02:04:35;19.71;55.40
69324;DHT22;56470;47.350;8.718;2023-06-04T02:07:02;19.67;55.48
69324;DHT22;56470;47.350;8.718;2023-06-04T02:09:27;19.60;55.57
69324;DHT22;56470;47.350;8.718;2023-06-04T02:11:52;19.57;55.77
69324;DHT22;56470;47.350;8.718;2023-06-04T02:14:18;19.54;55.90
69324;DHT22;56470;47.350;8.718;2023-06-04T02:16:43;19.53;55.90
69324;DHT22;56470;47.350;8.718;2023-06-04T02:19:08;19.50;55.91
69324;DHT22;56470;47.350;8.718;2023-06-04T02:21:34;19.49;55.96
69324;DHT22;56470;47.350;8.718;2023-06-04T02:24:00;19.47;56.01
69324;DHT22;56470;47.350;8.718;2023-06-04T02:26:26;19.47;56.17
69324;DHT22;56470;47.350;8.718;2023-06-04T02:28:51;19.49;56.20
69324;DHT22;56470;47.350;8.718;2023-06-04T02:31:17;19.47;56.01
69324;DHT22;56470;47.350;8.718;2023-06-04T02:33:42;19.40;56.22
69324;DHT22;56470;47.350;8.718;2023-06-04T02:36:08;19.36;56.50
69324;DHT22;56470;47.350;8.718;2023-06-04T02:38:34;19.37;56.60
69324;DHT22;56470;47.350;8.718;2023-06-04T02:41:00;19.46;56.67
69324;DHT22;56470;47.350;8.718;2023-06-04T02:43:25;19.46;56.51
69324;DHT22;56470;47.350;8.718;2023-06-04T02:45:50;19.47;56.43
69324;DHT22;56470;47.350;8.718;2023-06-04T02:48:16;19.39;56.50
69324;DHT22;56470;47.350;8.718;2023-06-04T02:50:41;19.34;56.61
69324;DHT22;56470;47.350;8.718;2023-06-04T02:53:07;19.27;56.60
69324;DHT22;56470;47.350;8.718;2023-06-04T02:55:33;19.19;56.88
69324;DHT22;56470;47.350;8.718;2023-06-04T02:57:59;19.18;57.01
69324;DHT22;56470;47.350;8.718;2023-06-04T03:00:25;19.19;57.03
69324;DHT22;56470;47.350;8.718;2023-06-04T03:02:51;19.16;57.13
69324;DHT22;56470;47.350;8.718;2023-06-04T03:05:17;19.19;57.15
69324;DHT22;56470;47.350;8.718;2023-06-04T03:07:44;19.20;57.05
69324;DHT22;56470;47.350;8.718;2023-06-04T03:10:10;19.20;57.08
69324;DHT22;56470;47.350;8.718;2023-06-04T03:12:36;19.23;57.17
69324;DHT22;56470;47.350;8.718;2023-06-04T03:15:02;19.18;57.23
69324;DHT22;56470;47.350;8.718;2023-06-04T03:17:27;19.15;57.29
69324;DHT22;56470;47.350;8.718;2023-06-04T03:19:53;19.09;57.26
69324;DHT22;56470;47.350;8.718;2023-06-04T03:22:18;19.08;57.42
69324;DHT22;56470;47.350;8.718;2023-06-04T03:24:44;19.01;57.52
69324;DHT22;56470;47.350;8.718;2023-06-04T03:27:09;18.98;57.66
69324;DHT22;56470;47.350;8.718;2023-06-04T03:29:36;18.92;57.62
69324;DHT22;56470;47.350;8.718;2023-06-04T03:32:02;18.87;57.63
69324;DHT22;56470;47.350;8.718;2023-06-04T03:34:27;18.78;57.76
69324;DHT22;56470;47.350;8.718;2023-06-04T03:36:56;18.68;57.92
69324;DHT22;56470;47.350;8.718;2023-06-04T03:39:22;18.64;58.01
69324;DHT22;56470;47.350;8.718;2023-06-04T03:41:48;18.61;58.23
69324;DHT22;56470;47.350;8.718;2023-06-04T03:44:14;18.60;58.52
69324;DHT22;56470;47.350;8.718;2023-06-04T03:46:40;18.58;58.59
69324;DHT22;56470;47.350;8.718;2023-06-04T03:49:05;18.61;58.60
69324;DHT22;56470;47.350;8.718;2023-06-04T03:51:31;18.65;58.74
69324;DHT22;56470;47.350;8.718;2023-06-04T03:53:58;18.69;58.83
69324;DHT22;56470;47.350;8.718;2023-06-04T03:56:23;18.74;58.77
69324;DHT22;56470;47.350;8.718;2023-06-04T03:58:49;18.74;58.79
69324;DHT22;56470;47.350;8.718;2023-06-04T04:01:15;18.78;58.81
69324;DHT22;56470;47.350;8.718;2023-06-04T04:03:40;18.75;58.78
69324;DHT22;56470;47.350;8.718;2023-06-04T04:06:09;18.75;58.82
69324;DHT22;56470;47.350;8.718;2023-06-04T04:08:35;18.77;58.80
69324;DHT22;56470;47.350;8.718;2023-06-04T04:11:02;18.75;58.86
69324;DHT22;56470;47.350;8.718;2023-06-04T04:13:28;18.71;59.00
69324;DHT22;56470;47.350;8.718;2023-06-04T04:15:53;18.72;58.97
69324;DHT22;56470;47.350;8.718;2023-06-04T04:18:21;18.72;59.03
69324;DHT22;56470;47.350;8.718;2023-06-04T04:20:47;18.75;58.96
69324;DHT22;56470;47.350;8.718;2023-06-04T04:23:13;18.78;59.16
69324;DHT22;56470;47.350;8.718;2023-06-04T04:25:38;18.79;59.14
69324;DHT22;56470;47.350;8.718;2023-06-04T04:28:04;18.83;59.12
69324;DHT22;56470;47.350;8.718;2023-06-04T04:30:36;18.83;59.09
69324;DHT22;56470;47.350;8.718;2023-06-04T04:33:02;18.81;59.23
69324;DHT22;56470;47.350;8.718;2023-06-04T04:35:30;18.83;59.44
69324;DHT22;56470;47.350;8.718;2023-06-04T04:37:58;18.85;59.39
69324;DHT22;56470;47.350;8.718;2023-06-04T04:40:24;18.99;59.38
69324;DHT22;56470;47.350;8.718;2023-06-04T04:42:49;19.05;59.23
69324;DHT22;56470;47.350;8.718;2023-06-04T04:45:14;19.08;59.32
69324;DHT22;56470;47.350;8.718;2023-06-04T04:47:39;19.16;59.28
69324;DHT22;56470;47.350;8.718;2023-06-04T04:50:05;19.23;59.09
69324;DHT22;56470;47.350;8.718;2023-06-04T04:52:31;19.26;59.05
69324;DHT22;56470;47.350;8.718;2023-06-04T04:54:56;19.30;58.94
69324;DHT22;56470;47.350;8.718;2023-06-04T04:57:23;19.33;58.80
69324;DHT22;56470;47.350;8.718;2023-06-04T04:59:49;19.40;58.64
69324;DHT22;56470;47.350;8.718;2023-06-04T05:02:15;19.43;58.66
69324;DHT22;56470;47.350;8.718;2023-06-04T05:04:41;19.43;58.73
69324;DHT22;56470;47.350;8.718;2023-06-04T05:07:06;19.50;58.74
69324;DHT22;56470;47.350;8.718;2023-06-04T05:09:31;19.49;58.71
69324;DHT22;56470;47.350;8.718;2023-06-04T05:11:57;19.54;58.81
69324;DHT22;56470;47.350;8.718;2023-06-04T05:14:22;19.58;58.67
69324;DHT22;56470;47.350;8.718;2023-06-04T05:16:48;19.63;58.77
69324;DHT22;56470;47.350;8.718;2023-06-04T05:19:15;19.70;58.72
69324;DHT22;56470;47.350;8.718;2023-06-04T05:21:41;19.82;58.57
69324;DHT22;56470;47.350;8.718;2023-06-04T05:24:07;19.92;58.50
69324;DHT22;56470;47.350;8.718;2023-06-04T05:26:32;20.05;58.35
69324;DHT22;56470;47.350;8.718;2023-06-04T05:28:58;20.19;58.27
69324;DHT22;56470;47.350;8.718;2023-06-04T05:31:24;20.39;57.98
69324;DHT22;56470;47.350;8.718;2023-06-04T05:33:51;20.58;57.71
69324;DHT22;56470;47.350;8.718;2023-06-04T05:36:17;20.80;57.42
69324;DHT22;56470;47.350;8.718;2023-06-04T05:38:42;20.99;57.09
69324;DHT22;56470;47.350;8.718;2023-06-04T05:41:08;21.13;56.75
69324;DHT22;56470;47.350;8.718;2023-06-04T05:43:33;21.35;56.39
69324;DHT22;56470;47.350;8.718;2023-06-04T05:45:58;21.49;56.00
69324;DHT22;56470;47.350;8.718;2023-06-04T05:48:24;21.63;55.75
69324;DHT22;56470;47.350;8.718;2023-06-04T05:50:50;21.75;55.47
69324;DHT22;56470;47.350;8.718;2023-06-04T05:53:15;21.87;55.19
69324;DHT22;56470;47.350;8.718;2023-06-04T05:55:41;22.02;54.87
69324;DHT22;56470;47.350;8.718;2023-06-04T05:58:06;22.13;54.54
69324;DHT22;56470;47.350;8.718;2023-06-04T06:00:32;22.30;54.26
69324;DHT22;56470;47.350;8.718;2023-06-04T06:02:57;22.39;53.90
69324;DHT22;56470;47.350;8.718;2023-06-04T06:05:22;22.44;53.69
69324;DHT22;56470;47.350;8.718;2023-06-04T06:07:48;22.50;53.56
69324;DHT22;56470;47.350;8.718;2023-06-04T06:10:13;22.56;53.39
69324;DHT22;56470;47.350;8.718;2023-06-04T06:12:40;22.63;53.25
69324;DHT22;56470;47.350;8.718;2023-06-04T06:15:06;22.63;52.93
69324;DHT22;56470;47.350;8.718;2023-06-04T06:17:32;22.60;52.76
69324;DHT22;56470;47.350;8.718;2023-06-04T06:19:58;22.61;52.83
69324;DHT22;56470;47.350;8.718;2023-06-04T06:22:23;22.63;53.00
69324;DHT22;56470;47.350;8.718;2023-06-04T06:24:49;22.77;53.54
69324;DHT22;56470;47.350;8.718;2023-06-04T06:27:15;22.88;52.84
69324;DHT22;56470;47.350;8.718;2023-06-04T06:29:43;22.95;52.82
69324;DHT22;56470;47.350;8.718;2023-06-04T06:32:10;23.06;52.64
69324;DHT22;56470;47.350;8.718;2023-06-04T06:34:35;23.18;52.39
69324;DHT22;56470;47.350;8.718;2023-06-04T06:37:02;23.18;51.95
69324;DHT22;56470;47.350;8.718;2023-06-04T06:39:27;23.18;52.18
69324;DHT22;56470;47.350;8.718;2023-06-04T06:41:53;23.23;52.05
69324;DHT22;56470;47.350;8.718;2023-06-04T06:44:18;23.19;52.20
69324;DHT22;56470;47.350;8.718;2023-06-04T06:46:43;23.16;52.08
69324;DHT22;56470;47.350;8.718;2023-06-04T06:49:09;23.15;52.19
69324;DHT22;56470;47.350;8.718;2023-06-04T06:51:37;23.15;52.12
69324;DHT22;56470;47.350;8.718;2023-06-04T06:54:02;23.11;52.14
69324;DHT22;56470;47.350;8.718;2023-06-04T06:56:28;23.13;52.42
69324;DHT22;56470;47.350;8.718;2023-06-04T06:58:53;23.24;52.45
69324;DHT22;56470;47.350;8.718;2023-06-04T07:01:19;23.38;52.24
69324;DHT22;56470;47.350;8.718;2023-06-04T07:03:44;23.46;52.06
69324;DHT22;56470;47.350;8.718;2023-06-04T07:06:10;23.51;51.92
69324;DHT22;56470;47.350;8.718;2023-06-04T07:08:35;23.57;51.78
69324;DHT22;56470;47.350;8.718;2023-06-04T07:11:02;23.60;51.65
69324;DHT22;56470;47.350;8.718;2023-06-04T07:13:27;23.60;51.70
69324;DHT22;56470;47.350;8.718;2023-06-04T07:15:53;23.64;51.76
69324;DHT22;56470;47.350;8.718;2023-06-04T07:18:18;23.81;51.61
69324;DHT22;56470;47.350;8.718;2023-06-04T07:20:44;23.97;51.37
69324;DHT22;56470;47.350;8.718;2023-06-04T07:23:10;24.00;50.91
69324;DHT22;56470;47.350;8.718;2023-06-04T07:25:35;24.00;50.82
69324;DHT22;56470;47.350;8.718;2023-06-04T07:28:00;24.08;50.36
69324;DHT22;56470;47.350;8.718;2023-06-04T07:30:29;24.08;50.34
69324;DHT22;56470;47.350;8.718;2023-06-04T07:32:54;24.22;50.18
69324;DHT22;56470;47.350;8.718;2023-06-04T07:35:24;24.32;49.75
69324;DHT22;56470;47.350;8.718;2023-06-04T07:37:49;24.43;49.81
69324;DHT22;56470;47.350;8.718;2023-06-04T07:40:16;24.56;49.69
69324;DHT22;56470;47.350;8.718;2023-06-04T07:42:42;24.64;49.53
69324;DHT22;56470;47.350;8.718;2023-06-04T07:45:08;24.43;49.53
69324;DHT22;56470;47.350;8.718;2023-06-04T07:47:35;24.32;49.81
69324;DHT22;56470;47.350;8.718;2023-06-04T07:50:00;24.19;50.10
69324;DHT22;56470;47.350;8.718;2023-06-04T07:52:26;24.11;50.39
69324;DHT22;56470;47.350;8.718;2023-06-04T07:54:51;24.20;50.59
69324;DHT22;56470;47.350;8.718;2023-06-04T07:57:17;24.37;50.50
69324;DHT22;56470;47.350;8.718;2023-06-04T07:59:42;24.47;50.27
69324;DHT22;56470;47.350;8.718;2023-06-04T08:02:07;24.61;50.05
69324;DHT22;56470;47.350;8.718;2023-06-04T08:04:32;24.68;49.70
69324;DHT22;56470;47.350;8.718;2023-06-04T08:06:58;24.59;49.63
69324;DHT22;56470;47.350;8.718;2023-06-04T08:09:23;24.49;49.82
69324;DHT22;56470;47.350;8.718;2023-06-04T08:11:49;24.39;49.87
69324;DHT22;56470;47.350;8.718;2023-06-04T08:14:14;24.33;49.99
69324;DHT22;56470;47.350;8.718;2023-06-04T08:16:40;24.30;50.00
69324;DHT22;56470;47.350;8.718;2023-06-04T08:19:05;24.29;49.98
69324;DHT22;56470;47.350;8.718;2023-06-04T08:21:32;24.35;50.02
69324;DHT22;56470;47.350;8.718;2023-06-04T08:23:58;24.25;50.04
69324;DHT22;56470;47.350;8.718;2023-06-04T08:26:24;24.26;50.26
69324;DHT22;56470;47.350;8.718;2023-06-04T08:28:50;24.26;50.34
69324;DHT22;56470;47.350;8.718;2023-06-04T08:31:16;24.85;51.66
69324;DHT22;56470;47.350;8.718;2023-06-04T08:33:42;25.87;50.47
69324;DHT22;56470;47.350;8.718;2023-06-04T08:36:07;26.92;49.19
69324;DHT22;56470;47.350;8.718;2023-06-04T08:38:33;27.95;47.34
69324;DHT22;56470;47.350;8.718;2023-06-04T08:41:15;28.75;42.04
69324;DHT22;56470;47.350;8.718;2023-06-04T08:43:42;29.45;44.79
69324;DHT22;56470;47.350;8.718;2023-06-04T08:46:09;30.00;43.56
69324;DHT22;56470;47.350;8.718;2023-06-04T08:48:35;30.53;42.50
69324;DHT22;56470;47.350;8.718;2023-06-04T08:51:02;31.01;41.34
69324;DHT22;56470;47.350;8.718;2023-06-04T08:53:29;31.29;40.62
69324;DHT22;56470;47.350;8.718;2023-06-04T08:55:55;31.47;39.84
69324;DHT22;56470;47.350;8.718;2023-06-04T08:58:21;31.47;39.50
69324;DHT22;56470;47.350;8.718;2023-06-04T09:00:48;31.43;39.25
69324;DHT22;56470;47.350;8.718;2023-06-04T09:03:14;31.19;39.08
69324;DHT22;56470;47.350;8.718;2023-06-04T09:05:41;30.95;39.53
69324;DHT22;56470;47.350;8.718;2023-06-04T09:08:12;30.69;39.78
69324;DHT22;56470;47.350;8.718;2023-06-04T09:10:39;30.42;40.00
69324;DHT22;56470;47.350;8.718;2023-06-04T09:13:06;30.05;40.02
69324;DHT22;56470;47.350;8.718;2023-06-04T09:15:33;29.70;40.42
69324;DHT22;56470;47.350;8.718;2023-06-04T09:17:58;29.40;40.87
69324;DHT22;56470;47.350;8.718;2023-06-04T09:20:24;29.33;41.24
69324;DHT22;56470;47.350;8.718;2023-06-04T09:22:50;29.42;41.22
69324;DHT22;56470;47.350;8.718;2023-06-04T09:25:23;29.45;40.77
69324;DHT22;56470;47.350;8.718;2023-06-04T09:27:51;29.43;41.12
69324;DHT22;56470;47.350;8.718;2023-06-04T09:30:17;29.37;41.07
69324;DHT22;56470;47.350;8.718;2023-06-04T09:32:42;29.29;41.25
69324;DHT22;56470;47.350;8.718;2023-06-04T09:37:41;28.98;41.29
69324;DHT22;56470;47.350;8.718;2023-06-04T09:40:08;28.97;41.42
69324;DHT22;56470;47.350;8.718;2023-06-04T09:42:44;28.91;40.99
69324;DHT22;56470;47.350;8.718;2023-06-04T09:45:10;28.83;41.50
69324;DHT22;56470;47.350;8.718;2023-06-04T09:47:43;28.61;41.24
69324;DHT22;56470;47.350;8.718;2023-06-04T09:50:10;28.31;41.63
69324;DHT22;56470;47.350;8.718;2023-06-04T09:52:36;28.16;41.95
69324;DHT22;56470;47.350;8.718;2023-06-04T09:55:03;28.11;42.23
69324;DHT22;56470;47.350;8.718;2023-06-04T09:57:29;28.12;42.37
69324;DHT22;56470;47.350;8.718;2023-06-04T09:59:56;28.04;42.15
69324;DHT22;56470;47.350;8.718;2023-06-04T10:02:22;27.90;42.52
69324;DHT22;56470;47.350;8.718;2023-06-04T10:04:53;27.94;42.61
69324;DHT22;56470;47.350;8.718;2023-06-04T10:07:22;27.88;42.47
69324;DHT22;56470;47.350;8.718;2023-06-04T10:09:50;27.84;42.54
69324;DHT22;56470;47.350;8.718;2023-06-04T10:12:16;27.57;42.69
69324;DHT22;56470;47.350;8.718;2023-06-04T10:14:49;27.54;42.88
69324;DHT22;56470;47.350;8.718;2023-06-04T10:17:17;27.50;42.93
69324;DHT22;56470;47.350;8.718;2023-06-04T10:19:43;27.40;43.02
69324;DHT22;56470;47.350;8.718;2023-06-04T10:22:09;27.46;42.99
69324;DHT22;56470;47.350;8.718;2023-06-04T10:24:36;27.50;42.94
69324;DHT22;56470;47.350;8.718;2023-06-04T10:27:03;27.40;43.04
69324;DHT22;56470;47.350;8.718;2023-06-04T10:29:35;27.38;43.18
69324;DHT22;56470;47.350;8.718;2023-06-04T10:32:01;27.35;43.11
69324;DHT22;56470;47.350;8.718;2023-06-04T10:34:27;27.31;43.09
69324;DHT22;56470;47.350;8.718;2023-06-04T10:36:52;27.26;42.81
69324;DHT22;56470;47.350;8.718;2023-06-04T10:39:28;27.22;42.29
69324;DHT22;56470;47.350;8.718;2023-06-04T10:41:59;27.21;39.21
69324;DHT22;56470;47.350;8.718;2023-06-04T10:44:24;26.95;39.95
69324;DHT22;56470;47.350;8.718;2023-06-04T10:46:50;26.94;39.41
69324;DHT22;56470;47.350;8.718;2023-06-04T10:49:28;27.04;36.19
69324;DHT22;56470;47.350;8.718;2023-06-04T10:51:55;27.15;38.41
69324;DHT22;56470;47.350;8.718;2023-06-04T10:54:28;27.04;37.44
69324;DHT22;56470;47.350;8.718;2023-06-04T10:56:54;26.78;36.87
69324;DHT22;56470;47.350;8.718;2023-06-04T10:59:20;26.26;36.58
69324;DHT22;56470;47.350;8.718;2023-06-04T11:01:46;26.19;37.73
69324;DHT22;56470;47.350;8.718;2023-06-04T11:04:25;26.35;35.71
69324;DHT22;56470;47.350;8.718;2023-06-04T11:07:03;26.36;36.14
69324;DHT22;56470;47.350;8.718;2023-06-04T11:09:30;26.53;37.54
69324;DHT22;56470;47.350;8.718;2023-06-04T11:11:57;26.69;37.06
69324;DHT22;56470;47.350;8.718;2023-06-04T11:14:22;26.52;35.70
69324;DHT22;56470;47.350;8.718;2023-06-04T11:16:47;26.11;36.24
69324;DHT22;56470;47.350;8.718;2023-06-04T11:19:13;26.12;36.96
69324;DHT22;56470;47.350;8.718;2023-06-04T11:21:38;26.28;36.88
69324;DHT22;56470;47.350;8.718;2023-06-04T11:24:04;26.40;36.80
69324;DHT22;56470;47.350;8.718;2023-06-04T11:26:31;26.50;36.76
69324;DHT22;56470;47.350;8.718;2023-06-04T11:28:57;26.50;36.43
69324;DHT22;56470;47.350;8.718;2023-06-04T11:31:23;26.46;36.41
69324;DHT22;56470;47.350;8.718;2023-06-04T11:33:48;26.44;36.39
69324;DHT22;56470;47.350;8.718;2023-06-04T11:36:26;26.46;34.37
69324;DHT22;56470;47.350;8.718;2023-06-04T11:38:59;26.35;35.32
69324;DHT22;56470;47.350;8.718;2023-06-04T11:41:29;26.25;34.73
69324;DHT22;56470;47.350;8.718;2023-06-04T11:43:56;26.21;35.88
69324;DHT22;56470;47.350;8.718;2023-06-04T11:46:22;26.25;35.90
69324;DHT22;56470;47.350;8.718;2023-06-04T11:48:47;26.29;35.90
69324;DHT22;56470;47.350;8.718;2023-06-04T11:51:15;26.28;35.91
69324;DHT22;56470;47.350;8.718;2023-06-04T11:53:41;26.18;36.13
69324;DHT22;56470;47.350;8.718;2023-06-04T11:56:06;26.14;36.00
69324;DHT22;56470;47.350;8.718;2023-06-04T11:58:32;26.04;35.72
69324;DHT22;56470;47.350;8.718;2023-06-04T12:00:57;25.99;35.65
69324;DHT22;56470;47.350;8.718;2023-06-04T12:03:58;25.95;33.78
69324;DHT22;56470;47.350;8.718;2023-06-04T12:06:24;25.95;35.35
69324;DHT22;56470;47.350;8.718;2023-06-04T12:08:54;25.98;34.88
69324;DHT22;56470;47.350;8.718;2023-06-04T12:11:26;25.73;35.12
69324;DHT22;56470;47.350;8.718;2023-06-04T12:13:55;25.56;35.71
69324;DHT22;56470;47.350;8.718;2023-06-04T12:16:22;25.64;35.67
69324;DHT22;56470;47.350;8.718;2023-06-04T12:18:47;25.66;35.87
69324;DHT22;56470;47.350;8.718;2023-06-04T12:21:23;25.75;35.66
69324;DHT22;56470;47.350;8.718;2023-06-04T12:24:11;25.49;35.33
69324;DHT22;56470;47.350;8.718;2023-06-04T12:26:39;25.22;35.65
69324;DHT22;56470;47.350;8.718;2023-06-04T12:29:12;25.07;35.79
69324;DHT22;56470;47.350;8.718;2023-06-04T12:31:39;25.19;36.23
69324;DHT22;56470;47.350;8.718;2023-06-04T12:34:05;25.33;36.24
69324;DHT22;56470;47.350;8.718;2023-06-04T12:36:30;25.30;36.06
69324;DHT22;56470;47.350;8.718;2023-06-04T12:38:59;25.36;36.06
69324;DHT22;56470;47.350;8.718;2023-06-04T12:41:28;25.30;35.57
69324;DHT22;56470;47.350;8.718;2023-06-04T12:43:54;25.25;35.94
69324;DHT22;56470;47.350;8.718;2023-06-04T12:46:20;25.01;36.23
69324;DHT22;56470;47.350;8.718;2023-06-04T12:48:47;25.04;36.32
69324;DHT22;56470;47.350;8.718;2023-06-04T12:51:12;25.05;36.33
69324;DHT22;56470;47.350;8.718;2023-06-04T12:53:41;24.92;36.69
69324;DHT22;56470;47.350;8.718;2023-06-04T12:56:07;25.02;37.00
69324;DHT22;56470;47.350;8.718;2023-06-04T12:58:32;25.14;37.09
69324;DHT22;56470;47.350;8.718;2023-06-04T13:00:58;25.19;37.12
69324;DHT22;56470;47.350;8.718;2023-06-04T13:03:23;25.30;36.88
69324;DHT22;56470;47.350;8.718;2023-06-04T13:05:48;25.36;37.07
69324;DHT22;56470;47.350;8.718;2023-06-04T13:08:16;25.40;37.07
69324;DHT22;56470;47.350;8.718;2023-06-04T13:10:41;25.32;36.53
69324;DHT22;56470;47.350;8.718;2023-06-04T13:13:06;25.32;36.76
69324;DHT22;56470;47.350;8.718;2023-06-04T13:15:32;25.35;36.88
69324;DHT22;56470;47.350;8.718;2023-06-04T13:17:57;25.35;36.60
69324;DHT22;56470;47.350;8.718;2023-06-04T13:20:23;25.36;36.83
69324;DHT22;56470;47.350;8.718;2023-06-04T13:22:48;25.40;36.59
69324;DHT22;56470;47.350;8.718;2023-06-04T13:25:14;25.36;36.24
69324;DHT22;56470;47.350;8.718;2023-06-04T13:27:40;25.25;36.32
69324;DHT22;56470;47.350;8.718;2023-06-04T13:30:06;25.23;36.23
69324;DHT22;56470;47.350;8.718;2023-06-04T13:32:31;25.23;36.42
69324;DHT22;56470;47.350;8.718;2023-06-04T13:34:56;25.22;36.01
69324;DHT22;56470;47.350;8.718;2023-06-04T13:37:22;25.19;36.14
69324;DHT22;56470;47.350;8.718;2023-06-04T13:39:48;25.05;36.01
69324;DHT22;56470;47.350;8.718;2023-06-04T13:42:13;25.12;36.12
69324;DHT22;56470;47.350;8.718;2023-06-04T13:44:38;25.15;35.11
69324;DHT22;56470;47.350;8.718;2023-06-04T13:47:04;25.07;35.42
69324;DHT22;56470;47.350;8.718;2023-06-04T13:49:33;24.91;35.04
69324;DHT22;56470;47.350;8.718;2023-06-04T13:51:58;25.04;35.78
69324;DHT22;56470;47.350;8.718;2023-06-04T13:54:23;25.14;35.85
69324;DHT22;56470;47.350;8.718;2023-06-04T13:56:49;25.15;36.05
69324;DHT22;56470;47.350;8.718;2023-06-04T13:59:14;25.09;36.15
69324;DHT22;56470;47.350;8.718;2023-06-04T14:01:40;25.07;35.92
69324;DHT22;56470;47.350;8.718;2023-06-04T14:04:05;24.96;35.40
69324;DHT22;56470;47.350;8.718;2023-06-04T14:06:31;25.02;35.74
69324;DHT22;56470;47.350;8.718;2023-06-04T14:08:56;25.05;35.80
69324;DHT22;56470;47.350;8.718;2023-06-04T14:11:22;25.18;36.14
69324;DHT22;56470;47.350;8.718;2023-06-04T14:13:47;25.23;36.22
69324;DHT22;56470;47.350;8.718;2023-06-04T14:16:12;25.32;36.17
69324;DHT22;56470;47.350;8.718;2023-06-04T14:18:38;25.30;36.12
69324;DHT22;56470;47.350;8.718;2023-06-04T14:21:03;25.23;35.90
69324;DHT22;56470;47.350;8.718;2023-06-04T14:23:28;25.26;35.93
69324;DHT22;56470;47.350;8.718;2023-06-04T14:25:54;25.25;37.36
69324;DHT22;56470;47.350;8.718;2023-06-04T14:28:19;25.35;36.71
69324;DHT22;56470;47.350;8.718;2023-06-04T14:30:46;25.30;36.12
69324;DHT22;56470;47.350;8.718;2023-06-04T14:33:11;25.27;36.40
69324;DHT22;56470;47.350;8.718;2023-06-04T14:35:36;25.36;36.37
69324;DHT22;56470;47.350;8.718;2023-06-04T14:38:04;25.42;36.50
69324;DHT22;56470;47.350;8.718;2023-06-04T14:40:29;25.39;36.36
69324;DHT22;56470;47.350;8.718;2023-06-04T14:42:54;25.43;36.26
69324;DHT22;56470;47.350;8.718;2023-06-04T14:45:20;25.46;36.20
69324;DHT22;56470;47.350;8.718;2023-06-04T14:47:45;25.46;36.27
69324;DHT22;56470;47.350;8.718;2023-06-04T14:50:11;25.50;36.26
69324;DHT22;56470;47.350;8.718;2023-06-04T14:52:36;25.54;36.19
69324;DHT22;56470;47.350;8.718;2023-06-04T14:55:01;25.46;35.95
69324;DHT22;56470;47.350;8.718;2023-06-04T14:57:26;25.47;36.10
69324;DHT22;56470;47.350;8.718;2023-06-04T14:59:52;25.46;36.13
69324;DHT22;56470;47.350;8.718;2023-06-04T15:02:17;25.46;36.18
69324;DHT22;56470;47.350;8.718;2023-06-04T15:04:46;25.44;36.11
69324;DHT22;56470;47.350;8.718;2023-06-04T15:07:12;25.35;36.18
69324;DHT22;56470;47.350;8.718;2023-06-04T15:09:37;25.33;36.34
69324;DHT22;56470;47.350;8.718;2023-06-04T15:12:02;25.35;36.63
69324;DHT22;56470;47.350;8.718;2023-06-04T15:14:28;25.36;36.38
69324;DHT22;56470;47.350;8.718;2023-06-04T15:16:53;25.33;36.47
69324;DHT22;56470;47.350;8.718;2023-06-04T15:19:18;25.36;36.41
69324;DHT22;56470;47.350;8.718;2023-06-04T15:21:44;25.42;36.40
69324;DHT22;56470;47.350;8.718;2023-06-04T15:24:10;25.43;36.41
69324;DHT22;56470;47.350;8.718;2023-06-04T15:26:35;25.27;36.48
69324;DHT22;56470;47.350;8.718;2023-06-04T15:29:00;25.30;36.58
69324;DHT22;56470;47.350;8.718;2023-06-04T15:31:26;25.35;36.71
69324;DHT22;56470;47.350;8.718;2023-06-04T15:33:51;25.30;36.79
69324;DHT22;56470;47.350;8.718;2023-06-04T15:36:17;25.23;36.31